Nearby METAR Reports

 

EGHI - Southampton Wx C, Hampshire, United Kingdom
Distance from station: SE 2mi, 3km
Updated: 19/07/2018 21:50
Clear
Clear
 Wind from calm
Wind: Calm
Temperature: 21°C
Dew Point: 11°C
Humidity: 53%
Barometer: 1016 hPa
Summary: Clear
Visibility: greater than 7 miles , 10 km
2018/07/19 20:50 EGHI 192050Z 00000KT CAVOK 21/11 Q1016
EGVP - Middle Wallop, Hampshire, United Kingdom
Distance from station: NW 14mi, 23km
Updated: 19/07/2018 21:50
Clear
Clear
 Wind from S
Wind: S 2 mph , 4 km/h
Temperature: 22°C
Dew Point: 12°C
Humidity: 53%
Barometer: 1017 hPa
Summary: Clear
Visibility: greater than 7 miles , 10 km
2018/07/19 20:50 EGVP 192050Z 18002KT CAVOK 22/12 Q1017 BLU NOSIG
 
EGDM - Boscombe Down, Dorset, United Kingdom
Distance from station: NW 21mi, 34km
Updated: 19/07/2018 20:50
NOT Current
Mostly cloudy
Mostly cloudy
 Wind from S
Wind: S 5 mph , 7 km/h
Temperature: 21°C
Dew Point: 12°C
Humidity: 57%
Barometer: 1017 hPa
Clouds: Mostly cloudy
Visibility: 6 miles , 10 km
Cloud details: Mostly cloudy 1829 m
2018/07/19 19:50 EGDM 191950Z AUTO 19004KT 9999 BKN060/// 21/12 Q1017
EGHH - Bournemouth Airp, Dorset, United Kingdom
Distance from station: WSW 23mi, 38km
Updated: 19/07/2018 21:50
Clear
Clear
 Wind from W
Wind: W 6 mph , 9 km/h
Temperature: 20°C
Dew Point: 11°C
Humidity: 56%
Barometer: 1016 hPa
Summary: Clear
Visibility: greater than 7 miles , 10 km
2018/07/19 20:50 EGHH 192050Z 28005KT CAVOK 20/11 Q1016
 
EGVO - Odiham Raf, Hampshire, United Kingdom
Distance from station: NE 26mi, 42km
Updated: 19/07/2018 21:50
Clear
Clear
 Wind from SW
Wind: SW 5 mph , 7 km/h
Temperature: 22°C
Dew Point: 11°C
Humidity: 50%
Barometer: 1016 hPa
Summary: Clear
Visibility: greater than 7 miles , 10 km
2018/07/19 20:50 EGVO 192050Z 23004KT CAVOK 22/11 Q1016 BLU NOSIG
EGLF - Farnborough, Hampshire, United Kingdom
Distance from station: NE 34mi, 56km
Updated: 19/07/2018 20:50
NOT Current
Clear
Clear
 Wind from SSW
Wind: SSW 5 mph , 7 km/h
Temperature: 22°C
Dew Point: 11°C
Humidity: 50%
Barometer: 1016 hPa
Summary: Clear
Visibility: greater than 7 miles , 10 km
2018/07/19 19:50 EGLF 191950Z 20004KT CAVOK 22/11 Q1016
 
EGDL - Lyneham Raf, Wiltshire, United Kingdom
Distance from station: NW 45mi, 72km
Updated: 21/06/2013 08:50
NOT Current
Mostly cloudy
Mostly cloudy
 Wind from WSW
Wind: WSW 9 mph , 15 km/h
Temperature: 14°C
Dew Point: 14°C
Humidity: 100%
Barometer: 1010 hPa
Clouds: Mostly cloudy
Cloud details: Mostly cloudy 61 m
Mostly cloudy 427 m
2013/06/21 07:50 EGDL 210750Z AUTO 25008KT //// // BKN002/// BKN014/// 14/14 Q1010
EGUB - Benson Raf, Oxfordshire, United Kingdom
Distance from station: NNE 47mi, 76km
Updated: 19/07/2018 21:50
Clear
Clear
 Wind from E
Wind: E 2 mph , 4 km/h
Temperature: 20°C
Dew Point: 12°C
Humidity: 60%
Barometer: 1016 hPa
Summary: Clear
Visibility: greater than 7 miles , 10 km
2018/07/19 20:50 EGUB 192050Z 08002KT CAVOK 20/12 Q1016 BLU NOSIG
 
EGKA - Shoreham-By-Sea, West Sussex, United Kingdom
Distance from station: E 48mi, 77km
Updated: 19/07/2018 19:50
NOT Current
Few Clouds
Few Clouds
 Wind from ESE
Wind: ESE 7 mph , 11 km/h
Temperature: 22°C
Dew Point: 14°C
Humidity: 61%
Barometer: 1016 hPa
Clouds: Few Clouds
Visibility: 6 miles , 10 km
Cloud details: Few Clouds 1463 m
2018/07/19 18:50 EGKA 191850Z 11006KT 9999 FEW048 22/14 Q1016
EGVA - Fairford Raf, Gloucestershire, United Kingdom
Distance from station: NNW 51mi, 82km
Updated: 19/07/2018 21:56
Clear
Clear
 Wind from calm
Wind: Calm
Temperature: 21°C
Dew Point: 11°C
Humidity: 53%
Barometer: 1016.3 hPa
Clouds: Clear
Visibility: 6 miles , 10 km
2018/07/19 20:56 EGVA 192056Z AUTO 00000KT 9999 CLR 21/11 A3001 RMK AO2 VIS 1800 RWY09 SLP163 T02050109 55000
 
EGDY - Yeovilton (navy), Somerset, United Kingdom
Distance from station: W 54mi, 87km
Updated: 19/07/2018 21:50
Clear
Clear
 Wind from WNW
Wind: WNW 5 mph , 7 km/h
Temperature: 18°C
Dew Point: 12°C
Humidity: 68%
Barometer: 1017 hPa
Summary: Clear
Visibility: greater than 7 miles , 10 km
2018/07/19 20:50 EGDY 192050Z 29004KT CAVOK 18/12 Q1017 BLU
EGKK - London/Gatwick A, West Sussex, United Kingdom
Distance from station: ENE 54mi, 87km
Updated: 19/07/2018 21:50
Clear
Clear
 Wind from ESE
Wind: ESE 6 mph , 9 km/h
Temperature: 22°C
Dew Point: 7°C
Humidity: 38%
Barometer: 1017 hPa
Summary: Clear
Visibility: greater than 7 miles , 10 km
2018/07/19 20:50 EGKK 192050Z 12005KT CAVOK 22/07 Q1017
 
EGLL - London/Heathrow, Middlesex, United Kingdom
Distance from station: NE 54mi, 87km
Updated: 19/07/2018 21:50
Clear
Clear
 Wind from E
Wind: E 9 mph , 15 km/h
Temperature: 24°C
Dew Point: 9°C
Humidity: 39%
Barometer: 1017 hPa
Clouds: Clear
Visibility: 6 miles , 10 km
2018/07/19 20:50 EGLL 192050Z AUTO 10008KT 9999 NCD 24/09 Q1017
EGVN - Brize Norton Raf, Oxfordshire, United Kingdom
Distance from station: N 56mi, 90km
Updated: 19/07/2018 21:50
Clear
Clear
 Wind from NW
Wind: NW 6 mph , 9 km/h
Temperature: 22°C
Dew Point: 10°C
Humidity: 47%
Barometer: 1016 hPa
Summary: Clear
Visibility: greater than 7 miles , 10 km
2018/07/19 20:50 EGVN 192050Z 32005KT CAVOK 22/10 Q1016 NOSIG
 
EGWU - Northolt Raf, Middlesex, United Kingdom
Distance from station: NE 58mi, 93km
Updated: 19/07/2018 21:50
Clear
Clear
 Wind from ESE
Wind: ESE 8 mph , 13 km/h
Temperature: 22°C
Dew Point: 11°C
Humidity: 50%
Barometer: 1016 hPa
Summary: Clear
Visibility: greater than 7 miles , 10 km
2018/07/19 20:50 EGWU 192050Z 12007KT CAVOK 22/11 Q1016 NOSIG
EGGD - Bristol/Lulsgate, Somerset, United Kingdom
Distance from station: WNW 64mi, 103km
Updated: 19/07/2018 21:50
Clear
Clear
 Wind from WSW
Wind: WSW 7 mph , 11 km/h
Temperature: 17°C
Dew Point: 14°C
Humidity: 83%
Barometer: 1017 hPa
Clouds: Clear
Visibility: 6 miles , 10 km
2018/07/19 20:50 EGGD 192050Z AUTO 25006KT 9999 NCD 17/14 Q1017
 
EGKB - Biggin Hill, Kent,United Kingdom
Distance from station: ENE 65mi, 105km
Updated: 19/07/2018 21:50
Clear
Clear
 Wind from E
Wind: E 5 mph , 7 km/h
Temperature: 19°C
Dew Point: 8°C
Humidity: 49%
Barometer: 1017 hPa
Summary: Clear
Visibility: greater than 7 miles , 10 km
2018/07/19 20:50 EGKB 192050Z 09004KT 060V130 CAVOK 19/08 Q1017
EGLC - London City Airp, Greater London, United Kingdom
Distance from station: ENE 72mi, 116km
Updated: 19/07/2018 21:50
Clear
Clear
 Wind from E
Wind: E 10 mph , 17 km/h
Temperature: 21°C
Dew Point: 10°C
Humidity: 50%
Barometer: 1017 hPa
Clouds: Clear
Visibility: 6 miles , 10 km
2018/07/19 20:50 EGLC 192050Z AUTO 10009KT 9999 NCD 21/10 Q1017
 
EGBJ - Staverton, Northamptonshire, United Kingdom
Distance from station: NNW 73mi, 117km
Updated: 19/07/2018 18:50
NOT Current
Clear
Clear
 Wind from WNW
Wind: WNW 5 mph , 7 km/h
Temperature: 26°C
Dew Point: 9°C
Humidity: 34%
Barometer: 1016 hPa
Summary: Clear
Visibility: greater than 7 miles , 10 km
2018/07/19 17:50 EGBJ 191750Z 29004KT 240V330 CAVOK 26/09 Q1016
EGGW - Luton Airport, Bedfordshire, United Kingdom
Distance from station: NE 76mi, 122km
Updated: 19/07/2018 21:50
Clear
Clear
 Wind from SE
Wind: SE 7 mph , 11 km/h
Temperature: 19°C
Dew Point: 7°C
Humidity: 46%
Barometer: 1017 hPa
Clouds: Clear
Visibility: 6 miles , 10 km
2018/07/19 20:50 EGGW 192050Z AUTO 13006KT 9999 NCD 19/07 Q1017